sensor_id;sensor_type;location;lat;lon;timestamp;P1;durP1;ratioP1;P2;durP2;ratioP2
15194;SDS011;7698;42.478;23.756;2023-08-24T00:00:14;7.28;;;6.78;;
15194;SDS011;7698;42.478;23.756;2023-08-24T00:02:41;7.60;;;7.07;;
15194;SDS011;7698;42.478;23.756;2023-08-24T00:05:08;8.52;;;7.85;;
15194;SDS011;7698;42.478;23.756;2023-08-24T00:07:34;8.50;;;7.90;;
15194;SDS011;7698;42.478;23.756;2023-08-24T00:10:01;8.32;;;7.65;;
15194;SDS011;7698;42.478;23.756;2023-08-24T00:12:29;7.80;;;7.25;;
15194;SDS011;7698;42.478;23.756;2023-08-24T00:14:56;8.40;;;7.70;;
15194;SDS011;7698;42.478;23.756;2023-08-24T00:17:24;7.35;;;6.85;;
15194;SDS011;7698;42.478;23.756;2023-08-24T00:19:51;7.15;;;6.65;;
15194;SDS011;7698;42.478;23.756;2023-08-24T00:22:17;7.13;;;6.63;;
15194;SDS011;7698;42.478;23.756;2023-08-24T00:24:44;7.30;;;6.80;;
15194;SDS011;7698;42.478;23.756;2023-08-24T00:27:10;7.97;;;7.38;;
15194;SDS011;7698;42.478;23.756;2023-08-24T00:29:38;7.15;;;6.65;;
15194;SDS011;7698;42.478;23.756;2023-08-24T00:32:05;8.60;;;7.80;;
15194;SDS011;7698;42.478;23.756;2023-08-24T00:34:34;8.73;;;8.02;;
15194;SDS011;7698;42.478;23.756;2023-08-24T00:37:01;8.48;;;7.78;;
15194;SDS011;7698;42.478;23.756;2023-08-24T00:39:27;8.63;;;7.90;;
15194;SDS011;7698;42.478;23.756;2023-08-24T00:41:54;8.27;;;7.72;;
15194;SDS011;7698;42.478;23.756;2023-08-24T00:44:21;8.02;;;7.32;;
15194;SDS011;7698;42.478;23.756;2023-08-24T00:46:47;7.18;;;6.75;;
15194;SDS011;7698;42.478;23.756;2023-08-24T00:49:14;6.38;;;5.97;;
15194;SDS011;7698;42.478;23.756;2023-08-24T00:51:42;7.78;;;6.95;;
15194;SDS011;7698;42.478;23.756;2023-08-24T00:54:08;8.00;;;7.50;;
15194;SDS011;7698;42.478;23.756;2023-08-24T00:56:35;10.00;;;9.30;;
15194;SDS011;7698;42.478;23.756;2023-08-24T00:59:01;9.13;;;8.40;;
15194;SDS011;7698;42.478;23.756;2023-08-24T01:01:28;7.63;;;6.97;;
15194;SDS011;7698;42.478;23.756;2023-08-24T01:03:54;7.07;;;6.57;;
15194;SDS011;7698;42.478;23.756;2023-08-24T01:06:21;7.18;;;6.53;;
15194;SDS011;7698;42.478;23.756;2023-08-24T01:08:49;8.27;;;7.68;;
15194;SDS011;7698;42.478;23.756;2023-08-24T01:11:18;8.63;;;7.93;;
15194;SDS011;7698;42.478;23.756;2023-08-24T01:13:50;8.77;;;8.18;;
15194;SDS011;7698;42.478;23.756;2023-08-24T01:16:21;9.63;;;9.00;;
15194;SDS011;7698;42.478;23.756;2023-08-24T01:18:52;10.45;;;9.45;;
15194;SDS011;7698;42.478;23.756;2023-08-24T01:21:19;9.10;;;8.50;;
15194;SDS011;7698;42.478;23.756;2023-08-24T01:23:52;10.07;;;9.27;;
15194;SDS011;7698;42.478;23.756;2023-08-24T01:26:21;10.10;;;9.27;;
15194;SDS011;7698;42.478;23.756;2023-08-24T01:28:48;10.30;;;9.50;;
15194;SDS011;7698;42.478;23.756;2023-08-24T01:31:16;10.73;;;10.02;;
15194;SDS011;7698;42.478;23.756;2023-08-24T01:33:43;10.30;;;9.60;;
15194;SDS011;7698;42.478;23.756;2023-08-24T01:36:11;11.27;;;10.48;;
15194;SDS011;7698;42.478;23.756;2023-08-24T01:38:38;10.65;;;9.95;;
15194;SDS011;7698;42.478;23.756;2023-08-24T01:41:08;10.25;;;9.55;;
15194;SDS011;7698;42.478;23.756;2023-08-24T01:43:37;9.60;;;9.00;;
15194;SDS011;7698;42.478;23.756;2023-08-24T01:46:05;11.18;;;10.38;;
15194;SDS011;7698;42.478;23.756;2023-08-24T01:48:33;10.75;;;9.95;;
15194;SDS011;7698;42.478;23.756;2023-08-24T01:51:00;12.13;;;11.20;;
15194;SDS011;7698;42.478;23.756;2023-08-24T01:53:30;10.38;;;9.60;;
15194;SDS011;7698;42.478;23.756;2023-08-24T01:55:56;11.68;;;10.77;;
15194;SDS011;7698;42.478;23.756;2023-08-24T01:58:23;11.90;;;11.00;;
15194;SDS011;7698;42.478;23.756;2023-08-24T02:00:50;9.65;;;8.95;;
15194;SDS011;7698;42.478;23.756;2023-08-24T02:03:17;9.20;;;8.60;;
15194;SDS011;7698;42.478;23.756;2023-08-24T02:05:43;8.85;;;8.25;;
15194;SDS011;7698;42.478;23.756;2023-08-24T02:08:10;10.32;;;9.48;;
15194;SDS011;7698;42.478;23.756;2023-08-24T02:10:36;9.18;;;8.57;;
15194;SDS011;7698;42.478;23.756;2023-08-24T02:13:03;9.98;;;9.27;;
15194;SDS011;7698;42.478;23.756;2023-08-24T02:15:30;10.95;;;10.15;;
15194;SDS011;7698;42.478;23.756;2023-08-24T02:17:57;9.27;;;8.68;;
15194;SDS011;7698;42.478;23.756;2023-08-24T02:20:24;10.23;;;9.32;;
15194;SDS011;7698;42.478;23.756;2023-08-24T02:22:51;8.57;;;7.97;;
15194;SDS011;7698;42.478;23.756;2023-08-24T02:25:17;11.07;;;10.18;;
15194;SDS011;7698;42.478;23.756;2023-08-24T02:27:44;9.30;;;8.65;;
15194;SDS011;7698;42.478;23.756;2023-08-24T02:30:11;9.07;;;8.38;;
15194;SDS011;7698;42.478;23.756;2023-08-24T02:32:38;8.52;;;7.82;;
15194;SDS011;7698;42.478;23.756;2023-08-24T02:35:07;7.53;;;7.03;;
15194;SDS011;7698;42.478;23.756;2023-08-24T02:37:33;9.00;;;8.35;;
15194;SDS011;7698;42.478;23.756;2023-08-24T02:40:00;9.30;;;8.57;;
15194;SDS011;7698;42.478;23.756;2023-08-24T02:42:27;9.65;;;8.00;;
15194;SDS011;7698;42.478;23.756;2023-08-24T02:44:53;9.30;;;8.50;;
15194;SDS011;7698;42.478;23.756;2023-08-24T02:47:20;10.85;;;9.98;;
15194;SDS011;7698;42.478;23.756;2023-08-24T02:49:46;10.27;;;9.48;;
15194;SDS011;7698;42.478;23.756;2023-08-24T02:52:14;8.27;;;7.68;;
15194;SDS011;7698;42.478;23.756;2023-08-24T02:54:41;9.02;;;8.27;;
15194;SDS011;7698;42.478;23.756;2023-08-24T02:57:08;7.45;;;6.95;;
15194;SDS011;7698;42.478;23.756;2023-08-24T02:59:35;8.70;;;8.10;;
15194;SDS011;7698;42.478;23.756;2023-08-24T03:02:01;7.80;;;7.30;;
15194;SDS011;7698;42.478;23.756;2023-08-24T03:04:29;8.07;;;7.47;;
15194;SDS011;7698;42.478;23.756;2023-08-24T03:06:56;10.27;;;9.57;;
15194;SDS011;7698;42.478;23.756;2023-08-24T03:09:24;9.82;;;9.10;;
15194;SDS011;7698;42.478;23.756;2023-08-24T03:11:51;11.45;;;10.63;;
15194;SDS011;7698;42.478;23.756;2023-08-24T03:14:17;13.18;;;12.18;;
15194;SDS011;7698;42.478;23.756;2023-08-24T03:16:44;8.95;;;8.35;;
15194;SDS011;7698;42.478;23.756;2023-08-24T03:19:10;10.20;;;9.40;;
15194;SDS011;7698;42.478;23.756;2023-08-24T03:21:39;11.32;;;10.43;;
15194;SDS011;7698;42.478;23.756;2023-08-24T03:24:06;10.95;;;10.15;;
15194;SDS011;7698;42.478;23.756;2023-08-24T03:26:34;10.45;;;9.65;;
15194;SDS011;7698;42.478;23.756;2023-08-24T03:29:01;10.70;;;9.80;;
15194;SDS011;7698;42.478;23.756;2023-08-24T03:31:27;8.50;;;7.90;;
15194;SDS011;7698;42.478;23.756;2023-08-24T03:33:54;8.70;;;8.10;;
15194;SDS011;7698;42.478;23.756;2023-08-24T03:36:20;7.97;;;7.45;;
15194;SDS011;7698;42.478;23.756;2023-08-24T03:38:47;8.80;;;8.02;;
15194;SDS011;7698;42.478;23.756;2023-08-24T03:41:14;8.50;;;7.90;;
15194;SDS011;7698;42.478;23.756;2023-08-24T03:43:42;8.88;;;8.18;;
15194;SDS011;7698;42.478;23.756;2023-08-24T03:46:08;9.93;;;9.13;;
15194;SDS011;7698;42.478;23.756;2023-08-24T03:48:35;10.23;;;9.48;;
15194;SDS011;7698;42.478;23.756;2023-08-24T03:51:01;9.73;;;9.02;;
15194;SDS011;7698;42.478;23.756;2023-08-24T03:53:28;10.27;;;9.55;;
15194;SDS011;7698;42.478;23.756;2023-08-24T03:55:55;11.10;;;10.20;;
15194;SDS011;7698;42.478;23.756;2023-08-24T03:58:21;11.27;;;10.20;;
15194;SDS011;7698;42.478;23.756;2023-08-24T04:00:50;12.85;;;11.13;;
15194;SDS011;7698;42.478;23.756;2023-08-24T04:03:19;10.75;;;9.75;;
15194;SDS011;7698;42.478;23.756;2023-08-24T04:05:46;11.43;;;10.48;;
15194;SDS011;7698;42.478;23.756;2023-08-24T04:08:12;12.05;;;11.07;;
15194;SDS011;7698;42.478;23.756;2023-08-24T04:10:39;12.48;;;11.40;;
15194;SDS011;7698;42.478;23.756;2023-08-24T04:13:05;10.88;;;9.93;;
15194;SDS011;7698;42.478;23.756;2023-08-24T04:15:32;9.88;;;9.18;;
15194;SDS011;7698;42.478;23.756;2023-08-24T04:18:00;11.02;;;10.23;;
15194;SDS011;7698;42.478;23.756;2023-08-24T04:20:27;8.38;;;7.78;;
15194;SDS011;7698;42.478;23.756;2023-08-24T04:22:54;9.88;;;9.18;;
15194;SDS011;7698;42.478;23.756;2023-08-24T04:25:21;11.25;;;10.35;;
15194;SDS011;7698;42.478;23.756;2023-08-24T04:27:48;9.57;;;8.98;;
15194;SDS011;7698;42.478;23.756;2023-08-24T04:30:15;12.02;;;11.13;;
15194;SDS011;7698;42.478;23.756;2023-08-24T04:32:41;12.98;;;11.95;;
15194;SDS011;7698;42.478;23.756;2023-08-24T04:35:09;11.95;;;10.95;;
15194;SDS011;7698;42.478;23.756;2023-08-24T04:37:36;10.07;;;9.38;;
15194;SDS011;7698;42.478;23.756;2023-08-24T04:40:04;11.85;;;10.75;;
15194;SDS011;7698;42.478;23.756;2023-08-24T04:42:32;10.23;;;9.45;;
15194;SDS011;7698;42.478;23.756;2023-08-24T04:44:59;9.93;;;9.13;;
15194;SDS011;7698;42.478;23.756;2023-08-24T04:47:26;9.35;;;8.70;;
15194;SDS011;7698;42.478;23.756;2023-08-24T04:49:53;11.60;;;10.60;;
15194;SDS011;7698;42.478;23.756;2023-08-24T04:52:21;11.25;;;10.30;;
15194;SDS011;7698;42.478;23.756;2023-08-24T04:54:47;10.57;;;9.68;;
15194;SDS011;7698;42.478;23.756;2023-08-24T04:57:14;9.70;;;8.90;;
15194;SDS011;7698;42.478;23.756;2023-08-24T04:59:41;10.10;;;9.35;;
15194;SDS011;7698;42.478;23.756;2023-08-24T05:02:08;10.00;;;9.27;;
15194;SDS011;7698;42.478;23.756;2023-08-24T05:04:35;8.80;;;8.20;;
15194;SDS011;7698;42.478;23.756;2023-08-24T05:07:02;11.05;;;10.18;;
15194;SDS011;7698;42.478;23.756;2023-08-24T05:09:30;9.45;;;8.85;;
15194;SDS011;7698;42.478;23.756;2023-08-24T05:11:57;10.23;;;9.48;;
15194;SDS011;7698;42.478;23.756;2023-08-24T05:14:24;9.35;;;8.65;;
15194;SDS011;7698;42.478;23.756;2023-08-24T05:16:51;9.45;;;8.85;;
15194;SDS011;7698;42.478;23.756;2023-08-24T05:19:18;9.32;;;8.63;;
15194;SDS011;7698;42.478;23.756;2023-08-24T05:21:44;10.15;;;9.38;;
15194;SDS011;7698;42.478;23.756;2023-08-24T05:24:12;10.13;;;9.32;;
15194;SDS011;7698;42.478;23.756;2023-08-24T05:26:41;9.63;;;8.88;;
15194;SDS011;7698;42.478;23.756;2023-08-24T05:29:08;10.18;;;9.45;;
15194;SDS011;7698;42.478;23.756;2023-08-24T05:31:35;9.73;;;9.02;;
15194;SDS011;7698;42.478;23.756;2023-08-24T05:34:03;10.50;;;9.75;;
15194;SDS011;7698;42.478;23.756;2023-08-24T05:36:31;10.45;;;9.65;;
15194;SDS011;7698;42.478;23.756;2023-08-24T05:39:00;9.25;;;8.63;;
15194;SDS011;7698;42.478;23.756;2023-08-24T05:41:28;8.63;;;8.02;;
15194;SDS011;7698;42.478;23.756;2023-08-24T05:43:56;9.20;;;8.52;;
15194;SDS011;7698;42.478;23.756;2023-08-24T05:46:24;8.52;;;7.93;;
15194;SDS011;7698;42.478;23.756;2023-08-24T05:48:51;8.80;;;8.20;;
15194;SDS011;7698;42.478;23.756;2023-08-24T05:51:18;9.23;;;8.43;;
15194;SDS011;7698;42.478;23.756;2023-08-24T05:53:44;7.53;;;7.03;;
15194;SDS011;7698;42.478;23.756;2023-08-24T05:56:11;8.45;;;7.85;;
15194;SDS011;7698;42.478;23.756;2023-08-24T05:58:38;7.63;;;7.03;;
15194;SDS011;7698;42.478;23.756;2023-08-24T06:01:06;8.32;;;7.63;;
15194;SDS011;7698;42.478;23.756;2023-08-24T06:03:33;7.13;;;6.72;;
15194;SDS011;7698;42.478;23.756;2023-08-24T06:06:00;7.40;;;6.90;;
15194;SDS011;7698;42.478;23.756;2023-08-24T06:08:28;7.68;;;7.18;;
15194;SDS011;7698;42.478;23.756;2023-08-24T06:10:55;7.43;;;6.97;;
15194;SDS011;7698;42.478;23.756;2023-08-24T06:13:22;8.40;;;7.80;;
15194;SDS011;7698;42.478;23.756;2023-08-24T06:15:49;7.95;;;7.43;;
15194;SDS011;7698;42.478;23.756;2023-08-24T06:18:18;9.02;;;8.20;;
15194;SDS011;7698;42.478;23.756;2023-08-24T06:20:44;8.27;;;7.72;;
15194;SDS011;7698;42.478;23.756;2023-08-24T06:23:14;8.48;;;7.88;;
15194;SDS011;7698;42.478;23.756;2023-08-24T06:25:41;8.98;;;8.27;;
15194;SDS011;7698;42.478;23.756;2023-08-24T06:28:07;9.30;;;8.45;;
15194;SDS011;7698;42.478;23.756;2023-08-24T06:30:36;9.52;;;8.73;;
15194;SDS011;7698;42.478;23.756;2023-08-24T06:33:04;8.45;;;7.75;;
15194;SDS011;7698;42.478;23.756;2023-08-24T06:35:33;9.60;;;8.65;;
15194;SDS011;7698;42.478;23.756;2023-08-24T06:38:01;7.95;;;7.43;;
15194;SDS011;7698;42.478;23.756;2023-08-24T06:40:28;9.45;;;8.63;;
15194;SDS011;7698;42.478;23.756;2023-08-24T06:42:56;8.63;;;7.93;;
15194;SDS011;7698;42.478;23.756;2023-08-24T06:45:23;9.05;;;8.20;;
15194;SDS011;7698;42.478;23.756;2023-08-24T06:47:51;8.18;;;7.57;;
15194;SDS011;7698;42.478;23.756;2023-08-24T06:50:18;8.75;;;8.23;;
15194;SDS011;7698;42.478;23.756;2023-08-24T06:52:47;7.65;;;7.15;;
15194;SDS011;7698;42.478;23.756;2023-08-24T06:55:14;7.85;;;7.35;;
15194;SDS011;7698;42.478;23.756;2023-08-24T06:57:41;8.23;;;7.63;;
15194;SDS011;7698;42.478;23.756;2023-08-24T07:00:08;7.43;;;6.85;;
15194;SDS011;7698;42.478;23.756;2023-08-24T07:02:38;7.70;;;7.10;;
15194;SDS011;7698;42.478;23.756;2023-08-24T07:05:05;7.35;;;6.65;;
15194;SDS011;7698;42.478;23.756;2023-08-24T07:07:34;7.70;;;7.10;;
15194;SDS011;7698;42.478;23.756;2023-08-24T07:10:02;8.75;;;7.95;;
15194;SDS011;7698;42.478;23.756;2023-08-24T07:12:29;9.13;;;8.52;;
15194;SDS011;7698;42.478;23.756;2023-08-24T07:14:56;8.40;;;7.70;;
15194;SDS011;7698;42.478;23.756;2023-08-24T07:17:23;8.10;;;7.53;;
15194;SDS011;7698;42.478;23.756;2023-08-24T07:19:50;7.50;;;6.90;;
15194;SDS011;7698;42.478;23.756;2023-08-24T07:22:17;9.13;;;8.52;;
15194;SDS011;7698;42.478;23.756;2023-08-24T07:24:44;7.22;;;6.65;;
15194;SDS011;7698;42.478;23.756;2023-08-24T07:27:13;8.23;;;7.55;;
15194;SDS011;7698;42.478;23.756;2023-08-24T07:29:40;8.90;;;8.10;;
15194;SDS011;7698;42.478;23.756;2023-08-24T07:32:07;7.85;;;7.35;;
15194;SDS011;7698;42.478;23.756;2023-08-24T07:34:33;6.70;;;6.10;;
15194;SDS011;7698;42.478;23.756;2023-08-24T07:37:00;7.28;;;6.15;;
15194;SDS011;7698;42.478;23.756;2023-08-24T07:39:27;5.75;;;5.35;;
15194;SDS011;7698;42.478;23.756;2023-08-24T07:41:54;6.97;;;6.38;;
15194;SDS011;7698;42.478;23.756;2023-08-24T07:44:22;5.57;;;5.00;;
15194;SDS011;7698;42.478;23.756;2023-08-24T07:46:49;5.88;;;5.43;;
15194;SDS011;7698;42.478;23.756;2023-08-24T07:49:16;5.47;;;5.07;;
15194;SDS011;7698;42.478;23.756;2023-08-24T07:51:43;6.32;;;5.93;;
15194;SDS011;7698;42.478;23.756;2023-08-24T07:54:12;5.95;;;5.30;;
15194;SDS011;7698;42.478;23.756;2023-08-24T07:56:39;6.00;;;5.50;;
15194;SDS011;7698;42.478;23.756;2023-08-24T07:59:06;5.60;;;5.20;;
15194;SDS011;7698;42.478;23.756;2023-08-24T08:01:34;5.80;;;5.30;;
15194;SDS011;7698;42.478;23.756;2023-08-24T08:04:01;6.07;;;5.57;;
15194;SDS011;7698;42.478;23.756;2023-08-24T08:06:27;6.22;;;5.72;;
15194;SDS011;7698;42.478;23.756;2023-08-24T08:08:54;6.70;;;6.13;;
15194;SDS011;7698;42.478;23.756;2023-08-24T08:11:21;6.28;;;5.82;;
15194;SDS011;7698;42.478;23.756;2023-08-24T08:13:48;5.25;;;4.95;;
15194;SDS011;7698;42.478;23.756;2023-08-24T08:16:15;5.93;;;5.43;;
15194;SDS011;7698;42.478;23.756;2023-08-24T08:18:43;5.88;;;5.47;;
15194;SDS011;7698;42.478;23.756;2023-08-24T08:21:10;5.43;;;5.03;;
15194;SDS011;7698;42.478;23.756;2023-08-24T08:23:38;7.32;;;6.65;;
15194;SDS011;7698;42.478;23.756;2023-08-24T08:26:05;6.72;;;6.20;;
15194;SDS011;7698;42.478;23.756;2023-08-24T08:28:31;6.07;;;5.60;;
15194;SDS011;7698;42.478;23.756;2023-08-24T08:31:00;6.15;;;5.75;;
15194;SDS011;7698;42.478;23.756;2023-08-24T08:33:27;7.03;;;6.53;;
15194;SDS011;7698;42.478;23.756;2023-08-24T08:35:55;6.90;;;6.40;;
15194;SDS011;7698;42.478;23.756;2023-08-24T08:38:22;7.20;;;6.60;;
15194;SDS011;7698;42.478;23.756;2023-08-24T08:40:51;7.45;;;6.85;;
15194;SDS011;7698;42.478;23.756;2023-08-24T08:43:18;7.45;;;6.85;;
15194;SDS011;7698;42.478;23.756;2023-08-24T08:45:45;7.22;;;6.15;;
15194;SDS011;7698;42.478;23.756;2023-08-24T08:48:13;6.72;;;6.13;;
15194;SDS011;7698;42.478;23.756;2023-08-24T08:50:41;7.05;;;6.55;;
15194;SDS011;7698;42.478;23.756;2023-08-24T08:53:10;9.70;;;6.60;;
15194;SDS011;7698;42.478;23.756;2023-08-24T08:55:38;6.70;;;6.30;;
15194;SDS011;7698;42.478;23.756;2023-08-24T08:58:06;6.88;;;6.38;;
15194;SDS011;7698;42.478;23.756;2023-08-24T09:00:33;6.53;;;6.05;;
15194;SDS011;7698;42.478;23.756;2023-08-24T09:03:00;7.07;;;6.57;;
15194;SDS011;7698;42.478;23.756;2023-08-24T09:05:28;6.82;;;6.32;;
15194;SDS011;7698;42.478;23.756;2023-08-24T09:07:55;7.15;;;6.60;;
15194;SDS011;7698;42.478;23.756;2023-08-24T09:10:24;6.60;;;6.15;;
15194;SDS011;7698;42.478;23.756;2023-08-24T09:12:50;7.10;;;6.70;;
15194;SDS011;7698;42.478;23.756;2023-08-24T09:15:23;6.65;;;6.15;;
15194;SDS011;7698;42.478;23.756;2023-08-24T09:17:50;6.28;;;5.88;;
15194;SDS011;7698;42.478;23.756;2023-08-24T09:20:17;7.10;;;6.60;;
15194;SDS011;7698;42.478;23.756;2023-08-24T09:22:44;8.00;;;7.40;;
15194;SDS011;7698;42.478;23.756;2023-08-24T09:25:10;7.35;;;6.75;;
15194;SDS011;7698;42.478;23.756;2023-08-24T09:27:39;7.28;;;6.78;;
15194;SDS011;7698;42.478;23.756;2023-08-24T09:30:07;7.45;;;6.85;;
15194;SDS011;7698;42.478;23.756;2023-08-24T09:32:34;9.30;;;8.60;;
15194;SDS011;7698;42.478;23.756;2023-08-24T09:35:04;8.35;;;7.75;;
15194;SDS011;7698;42.478;23.756;2023-08-24T09:37:34;8.80;;;8.10;;
15194;SDS011;7698;42.478;23.756;2023-08-24T09:40:01;8.40;;;7.70;;
15194;SDS011;7698;42.478;23.756;2023-08-24T09:42:37;6.70;;;6.30;;
15194;SDS011;7698;42.478;23.756;2023-08-24T09:45:06;7.10;;;6.60;;
15194;SDS011;7698;42.478;23.756;2023-08-24T09:47:35;6.93;;;6.53;;
15194;SDS011;7698;42.478;23.756;2023-08-24T09:50:02;6.00;;;5.60;;
15194;SDS011;7698;42.478;23.756;2023-08-24T09:52:31;6.30;;;5.80;;
15194;SDS011;7698;42.478;23.756;2023-08-24T09:54:58;5.97;;;5.57;;
15194;SDS011;7698;42.478;23.756;2023-08-24T09:57:25;6.28;;;5.78;;
15194;SDS011;7698;42.478;23.756;2023-08-24T09:59:51;6.88;;;6.38;;
15194;SDS011;7698;42.478;23.756;2023-08-24T10:02:20;6.82;;;6.32;;
15194;SDS011;7698;42.478;23.756;2023-08-24T10:04:47;6.32;;;5.82;;
15194;SDS011;7698;42.478;23.756;2023-08-24T10:07:16;5.68;;;5.28;;
15194;SDS011;7698;42.478;23.756;2023-08-24T10:09:47;5.68;;;5.38;;
15194;SDS011;7698;42.478;23.756;2023-08-24T10:12:16;5.70;;;5.40;;
15194;SDS011;7698;42.478;23.756;2023-08-24T10:14:47;6.00;;;5.70;;
15194;SDS011;7698;42.478;23.756;2023-08-24T10:17:20;5.45;;;5.15;;
15194;SDS011;7698;42.478;23.756;2023-08-24T10:19:47;6.25;;;5.65;;
15194;SDS011;7698;42.478;23.756;2023-08-24T10:22:15;6.97;;;6.47;;
15194;SDS011;7698;42.478;23.756;2023-08-24T10:24:42;7.68;;;6.97;;
15194;SDS011;7698;42.478;23.756;2023-08-24T10:27:10;8.13;;;7.40;;
15194;SDS011;7698;42.478;23.756;2023-08-24T10:29:37;7.05;;;6.55;;
15194;SDS011;7698;42.478;23.756;2023-08-24T10:32:04;8.02;;;7.32;;
15194;SDS011;7698;42.478;23.756;2023-08-24T10:34:32;7.82;;;7.15;;
15194;SDS011;7698;42.478;23.756;2023-08-24T10:37:06;7.72;;;6.60;;
15194;SDS011;7698;42.478;23.756;2023-08-24T10:39:34;7.65;;;7.05;;
15194;SDS011;7698;42.478;23.756;2023-08-24T10:42:03;8.05;;;7.35;;
15194;SDS011;7698;42.478;23.756;2023-08-24T10:44:34;8.20;;;7.40;;
15194;SDS011;7698;42.478;23.756;2023-08-24T10:47:09;6.50;;;6.03;;
15194;SDS011;7698;42.478;23.756;2023-08-24T10:49:40;7.05;;;6.55;;
15194;SDS011;7698;42.478;23.756;2023-08-24T10:52:17;7.20;;;6.60;;
15194;SDS011;7698;42.478;23.756;2023-08-24T10:54:45;6.47;;;6.07;;
15194;SDS011;7698;42.478;23.756;2023-08-24T10:57:17;6.75;;;6.20;;
15194;SDS011;7698;42.478;23.756;2023-08-24T10:59:45;6.93;;;6.43;;
15194;SDS011;7698;42.478;23.756;2023-08-24T11:02:25;7.38;;;6.72;;
15194;SDS011;7698;42.478;23.756;2023-08-24T11:05:15;8.45;;;6.95;;
15194;SDS011;7698;42.478;23.756;2023-08-24T11:07:52;8.13;;;6.60;;
15194;SDS011;7698;42.478;23.756;2023-08-24T11:10:20;7.43;;;6.85;;
15194;SDS011;7698;42.478;23.756;2023-08-24T11:15:42;7.15;;;6.55;;
15194;SDS011;7698;42.478;23.756;2023-08-24T11:21:01;7.55;;;6.90;;
15194;SDS011;7698;42.478;23.756;2023-08-24T11:23:29;6.35;;;5.82;;
15194;SDS011;7698;42.478;23.756;2023-08-24T11:25:57;6.65;;;6.05;;
15194;SDS011;7698;42.478;23.756;2023-08-24T11:28:24;6.38;;;5.97;;
15194;SDS011;7698;42.478;23.756;2023-08-24T11:30:51;6.18;;;5.78;;
15194;SDS011;7698;42.478;23.756;2023-08-24T11:33:26;7.75;;;7.25;;
15194;SDS011;7698;42.478;23.756;2023-08-24T11:35:53;6.45;;;6.05;;
15194;SDS011;7698;42.478;23.756;2023-08-24T11:38:21;7.40;;;6.80;;
15194;SDS011;7698;42.478;23.756;2023-08-24T11:40:48;7.55;;;7.03;;
15194;SDS011;7698;42.478;23.756;2023-08-24T11:43:20;7.80;;;7.20;;
15194;SDS011;7698;42.478;23.756;2023-08-24T11:45:47;7.55;;;6.95;;
15194;SDS011;7698;42.478;23.756;2023-08-24T11:48:14;8.15;;;7.30;;
15194;SDS011;7698;42.478;23.756;2023-08-24T11:50:41;7.95;;;7.20;;
15194;SDS011;7698;42.478;23.756;2023-08-24T11:53:08;8.82;;;6.80;;
15194;SDS011;7698;42.478;23.756;2023-08-24T11:55:40;8.15;;;7.43;;
15194;SDS011;7698;42.478;23.756;2023-08-24T11:58:13;6.88;;;6.38;;
15194;SDS011;7698;42.478;23.756;2023-08-24T12:00:40;7.60;;;6.90;;
15194;SDS011;7698;42.478;23.756;2023-08-24T12:03:07;7.38;;;6.93;;
15194;SDS011;7698;42.478;23.756;2023-08-24T12:05:34;7.35;;;6.60;;
15194;SDS011;7698;42.478;23.756;2023-08-24T12:08:02;6.32;;;5.82;;
15194;SDS011;7698;42.478;23.756;2023-08-24T12:10:29;7.13;;;6.63;;
15194;SDS011;7698;42.478;23.756;2023-08-24T12:13:02;14.68;;;13.60;;
15194;SDS011;7698;42.478;23.756;2023-08-24T12:15:30;9.73;;;8.93;;
15194;SDS011;7698;42.478;23.756;2023-08-24T12:17:57;7.88;;;7.18;;
15194;SDS011;7698;42.478;23.756;2023-08-24T12:20:33;11.77;;;10.88;;
15194;SDS011;7698;42.478;23.756;2023-08-24T12:23:00;8.45;;;7.85;;
15194;SDS011;7698;42.478;23.756;2023-08-24T12:25:27;6.57;;;6.18;;
15194;SDS011;7698;42.478;23.756;2023-08-24T12:28:09;6.63;;;5.70;;
15194;SDS011;7698;42.478;23.756;2023-08-24T12:30:46;7.00;;;6.50;;
15194;SDS011;7698;42.478;23.756;2023-08-24T12:33:22;7.82;;;7.32;;
15194;SDS011;7698;42.478;23.756;2023-08-24T12:35:49;7.28;;;6.78;;
15194;SDS011;7698;42.478;23.756;2023-08-24T12:38:16;7.30;;;6.80;;
15194;SDS011;7698;42.478;23.756;2023-08-24T12:40:44;7.13;;;6.53;;
15194;SDS011;7698;42.478;23.756;2023-08-24T12:43:12;7.32;;;6.72;;
15194;SDS011;7698;42.478;23.756;2023-08-24T12:45:40;10.35;;;9.45;;
15194;SDS011;7698;42.478;23.756;2023-08-24T12:48:07;11.00;;;10.07;;
15194;SDS011;7698;42.478;23.756;2023-08-24T12:50:35;7.97;;;7.38;;
15194;SDS011;7698;42.478;23.756;2023-08-24T12:53:02;7.45;;;6.95;;
15194;SDS011;7698;42.478;23.756;2023-08-24T12:55:31;6.70;;;6.20;;
15194;SDS011;7698;42.478;23.756;2023-08-24T12:57:58;6.65;;;6.20;;
15194;SDS011;7698;42.478;23.756;2023-08-24T13:00:26;5.63;;;5.22;;
15194;SDS011;7698;42.478;23.756;2023-08-24T13:02:53;5.97;;;5.47;;
15194;SDS011;7698;42.478;23.756;2023-08-24T13:05:20;6.32;;;5.93;;
15194;SDS011;7698;42.478;23.756;2023-08-24T13:07:47;6.40;;;5.90;;
15194;SDS011;7698;42.478;23.756;2023-08-24T13:10:16;5.80;;;5.40;;
15194;SDS011;7698;42.478;23.756;2023-08-24T13:12:44;6.90;;;6.50;;
15194;SDS011;7698;42.478;23.756;2023-08-24T13:15:12;9.23;;;8.52;;
15194;SDS011;7698;42.478;23.756;2023-08-24T13:17:42;6.88;;;6.32;;
15194;SDS011;7698;42.478;23.756;2023-08-24T13:20:08;13.68;;;12.50;;
15194;SDS011;7698;42.478;23.756;2023-08-24T13:22:35;8.02;;;7.43;;
15194;SDS011;7698;42.478;23.756;2023-08-24T13:25:02;7.82;;;7.10;;
15194;SDS011;7698;42.478;23.756;2023-08-24T13:27:29;7.50;;;7.00;;
15194;SDS011;7698;42.478;23.756;2023-08-24T13:29:56;7.18;;;6.68;;
15194;SDS011;7698;42.478;23.756;2023-08-24T13:32:26;6.63;;;6.05;;
15194;SDS011;7698;42.478;23.756;2023-08-24T13:34:54;7.20;;;6.70;;
15194;SDS011;7698;42.478;23.756;2023-08-24T13:37:22;7.82;;;7.07;;
15194;SDS011;7698;42.478;23.756;2023-08-24T13:39:49;7.85;;;7.28;;
15194;SDS011;7698;42.478;23.756;2023-08-24T13:42:16;6.97;;;6.38;;
15194;SDS011;7698;42.478;23.756;2023-08-24T13:44:43;6.95;;;6.43;;
15194;SDS011;7698;42.478;23.756;2023-08-24T13:47:10;6.75;;;6.35;;
15194;SDS011;7698;42.478;23.756;2023-08-24T13:49:37;6.20;;;5.80;;
15194;SDS011;7698;42.478;23.756;2023-08-24T13:52:05;6.80;;;6.40;;
15194;SDS011;7698;42.478;23.756;2023-08-24T13:54:32;7.28;;;6.78;;
15194;SDS011;7698;42.478;23.756;2023-08-24T13:56:58;7.10;;;6.60;;
15194;SDS011;7698;42.478;23.756;2023-08-24T13:59:26;7.07;;;6.68;;
15194;SDS011;7698;42.478;23.756;2023-08-24T14:01:52;9.55;;;8.93;;
15194;SDS011;7698;42.478;23.756;2023-08-24T14:04:19;8.27;;;7.68;;
15194;SDS011;7698;42.478;23.756;2023-08-24T14:06:45;11.80;;;11.00;;
15194;SDS011;7698;42.478;23.756;2023-08-24T14:09:14;10.35;;;9.55;;
15194;SDS011;7698;42.478;23.756;2023-08-24T14:11:41;9.48;;;8.77;;
15194;SDS011;7698;42.478;23.756;2023-08-24T14:14:08;8.43;;;7.90;;
15194;SDS011;7698;42.478;23.756;2023-08-24T14:16:35;9.30;;;8.70;;
15194;SDS011;7698;42.478;23.756;2023-08-24T14:19:01;8.48;;;7.88;;
15194;SDS011;7698;42.478;23.756;2023-08-24T14:21:28;9.70;;;9.00;;
15194;SDS011;7698;42.478;23.756;2023-08-24T14:23:55;8.82;;;8.23;;
15194;SDS011;7698;42.478;23.756;2023-08-24T14:26:23;8.95;;;8.13;;
15194;SDS011;7698;42.478;23.756;2023-08-24T14:28:50;9.15;;;8.55;;
15194;SDS011;7698;42.478;23.756;2023-08-24T14:31:18;8.30;;;7.70;;
15194;SDS011;7698;42.478;23.756;2023-08-24T14:33:46;8.77;;;8.10;;
15194;SDS011;7698;42.478;23.756;2023-08-24T14:36:13;8.25;;;7.65;;
15194;SDS011;7698;42.478;23.756;2023-08-24T14:38:40;8.00;;;7.45;;
15194;SDS011;7698;42.478;23.756;2023-08-24T14:41:07;8.85;;;8.25;;
15194;SDS011;7698;42.478;23.756;2023-08-24T14:43:36;7.57;;;6.97;;
15194;SDS011;7698;42.478;23.756;2023-08-24T14:46:03;7.57;;;6.97;;
15194;SDS011;7698;42.478;23.756;2023-08-24T14:48:30;7.82;;;7.32;;
15194;SDS011;7698;42.478;23.756;2023-08-24T14:50:56;7.60;;;7.10;;